Time;durP1;ratioP1;P1;durP2;ratioP2;P2;SDS_P1;SDS_P2;PMS_P1;PMS_P2;Temp;Humidity;BMP_temperature;BMP_pressure;BME280_temperature;BME280_humidity;BME280_pressure;Samples;Min_cycle;Max_cycle;Signal;HPM_P1;HPM_P2
2022/01/19 00:01:11;;;;;;;9.47;6.43;;;3.10;99.90;;;;;;5042310;28;20516;-81
2022/01/19 00:03:38;;;;;;;13.20;6.77;;;3.00;99.90;;;;;;5040617;28;20481;-84
2022/01/19 00:06:06;;;;;;;12.10;7.30;;;3.10;99.90;;;;;;5035113;28;20972;-82
2022/01/19 00:08:33;;;;;;;10.13;6.93;;;2.90;99.90;;;;;;5039665;28;20556;-82
2022/01/19 00:11:02;;;;;;;11.03;6.90;;;2.90;99.90;;;;;;5041345;28;20481;-83
2022/01/19 00:13:28;;;;;;;12.70;6.83;;;2.90;99.90;;;;;;5035804;28;20539;-82
2022/01/19 00:15:55;;;;;;;15.90;7.70;;;2.90;99.90;;;;;;5042627;28;20508;-83
2022/01/19 00:18:24;;;;;;;10.57;6.83;;;2.90;99.90;;;;;;5037992;28;20536;-82
2022/01/19 00:20:53;;;;;;;11.00;6.30;;;2.80;99.90;;;;;;5041150;28;20552;-82
2022/01/19 00:23:21;;;;;;;9.87;6.27;;;2.70;99.90;;;;;;5047004;28;20289;-82
2022/01/19 00:25:49;;;;;;;8.53;6.30;;;2.70;99.90;;;;;;5048169;28;20464;-82
2022/01/19 00:28:18;;;;;;;12.40;6.90;;;2.60;99.90;;;;;;5043400;28;20474;-82
2022/01/19 00:30:45;;;;;;;8.50;6.40;;;2.60;99.90;;;;;;5025437;28;20541;-81
2022/01/19 00:33:13;;;;;;;9.07;6.20;;;2.60;99.90;;;;;;5040364;28;20464;-82
2022/01/19 00:35:40;;;;;;;11.50;7.35;;;2.60;99.90;;;;;;5045288;28;20456;-82
2022/01/19 00:38:08;;;;;;;9.43;6.90;;;2.60;99.90;;;;;;5042273;28;20205;-82
2022/01/19 00:40:36;;;;;;;11.40;7.03;;;2.50;99.90;;;;;;5041478;28;20264;-83
2022/01/19 00:43:03;;;;;;;9.40;6.00;;;2.50;99.90;;;;;;5038582;28;20234;-83
2022/01/19 00:45:32;;;;;;;9.17;6.10;;;2.50;99.90;;;;;;5039644;28;20548;-82
2022/01/19 00:47:59;;;;;;;11.73;6.50;;;2.50;99.90;;;;;;5037352;28;20485;-82
2022/01/19 00:50:29;;;;;;;11.43;6.30;;;2.50;99.90;;;;;;5039858;28;20898;-83
2022/01/19 00:52:56;;;;;;;8.53;5.63;;;2.40;99.90;;;;;;5030988;28;20536;-82
2022/01/19 00:55:25;;;;;;;10.30;6.63;;;2.40;99.90;;;;;;5038566;28;20676;-83
2022/01/19 00:57:53;;;;;;;11.90;7.20;;;2.40;99.90;;;;;;5038830;28;20516;-82
2022/01/19 01:00:22;;;;;;;14.73;6.80;;;2.40;99.90;;;;;;5020361;28;20286;-83
2022/01/19 01:02:51;;;;;;;11.70;7.07;;;2.40;99.90;;;;;;5039231;28;20556;-81
2022/01/19 01:05:18;;;;;;;11.77;7.10;;;2.30;99.90;;;;;;5038955;28;20911;-82
2022/01/19 01:07:45;;;;;;;11.73;6.70;;;2.30;99.90;;;;;;5038722;28;20597;-83
2022/01/19 01:10:15;;;;;;;13.00;7.37;;;2.20;99.90;;;;;;5020469;28;20489;-82
2022/01/19 01:12:46;;;;;;;13.33;7.50;;;2.10;99.90;;;;;;5037332;28;20449;-83
2022/01/19 01:15:37;;;;;;;9.55;6.90;;;2.10;99.90;;;;;;5037929;28;20484;-83
2022/01/19 01:18:19;;;;;;;9.00;6.33;;;2.10;99.90;;;;;;5019690;28;20230;-82
2022/01/19 01:20:48;;;;;;;11.30;7.05;;;2.10;99.90;;;;;;5024360;28;20476;-82
2022/01/19 01:23:16;;;;;;;9.00;6.77;;;2.00;99.90;;;;;;5036831;28;20213;-80
2022/01/19 01:25:43;;;;;;;10.40;6.15;;;2.00;99.90;;;;;;5038513;28;20551;-82
2022/01/19 01:28:10;;;;;;;10.30;7.00;;;2.00;99.90;;;;;;5038112;28;20289;-83
2022/01/19 01:30:38;;;;;;;11.80;6.40;;;2.00;99.90;;;;;;5038072;28;20500;-82
2022/01/19 01:33:07;;;;;;;8.35;6.38;;;2.00;99.90;;;;;;5038141;28;20484;-82
2022/01/19 01:35:34;;;;;;;10.97;6.30;;;2.00;99.90;;;;;;5038917;28;20317;-83
2022/01/19 01:38:01;;;;;;;11.73;7.30;;;1.90;99.90;;;;;;5038711;28;20449;-81
2022/01/19 01:40:31;;;;;;;9.45;6.40;;;1.80;99.90;;;;;;5038346;28;20719;-82
2022/01/19 01:42:59;;;;;;;8.57;6.15;;;1.70;99.90;;;;;;5037009;28;20205;-81
2022/01/19 01:45:29;;;;;;;11.10;7.68;;;1.80;99.90;;;;;;5037500;28;20266;-83
2022/01/19 01:48:10;;;;;;;9.48;6.57;;;1.70;99.90;;;;;;5037218;28;20305;-84
2022/01/19 01:53:29;;;;;;;9.87;6.53;;;1.70;99.90;;;;;;5037379;28;20487;-83
2022/01/19 01:56:01;;;;;;;12.33;7.27;;;1.70;99.90;;;;;;5038739;28;20523;-83
2022/01/19 01:58:30;;;;;;;9.02;6.15;;;1.70;99.90;;;;;;5037474;28;20489;-82
2022/01/19 02:00:57;;;;;;;13.50;6.97;;;1.70;99.90;;;;;;5038308;28;20333;-83
2022/01/19 02:03:24;;;;;;;13.83;6.87;;;1.70;99.90;;;;;;5037960;28;20618;-83
2022/01/19 02:06:16;;;;;;;9.73;6.72;;;1.70;99.90;;;;;;5039090;28;20473;-83
2022/01/19 02:08:47;;;;;;;13.05;7.45;;;1.70;99.90;;;;;;5039227;28;20580;-83
2022/01/19 02:22:55;;;;;;;10.80;6.95;;;1.40;99.90;;;;;;5036212;28;20311;-82
2022/01/19 02:25:27;;;;;;;9.43;6.20;;;1.40;99.90;;;;;;5036827;28;20205;-82
2022/01/19 02:31:19;;;;;;;11.10;7.25;;;1.40;99.90;;;;;;5036477;28;20256;-82
2022/01/19 02:36:53;;;;;;;11.20;7.03;;;1.60;99.90;;;;;;5034259;28;20740;-83
2022/01/19 02:42:10;;;;;;;10.10;7.20;;;2.00;99.90;;;;;;5020187;28;20506;-83
2022/01/19 02:50:09;;;;;;;11.73;8.50;;;2.50;99.90;;;;;;5033789;28;20492;-81
2022/01/19 02:52:37;;;;;;;11.10;7.03;;;2.60;99.90;;;;;;5023908;28;20256;-83
2022/01/19 02:55:05;;;;;;;9.87;7.10;;;2.70;99.90;;;;;;5037751;28;20599;-83
2022/01/19 02:57:35;;;;;;;15.23;8.30;;;2.90;99.90;;;;;;5039526;28;20469;-83
2022/01/19 03:11:05;;;;;;;7.97;6.83;;;3.60;99.90;;;;;;5005500;28;20465;-81
2022/01/19 03:13:32;;;;;;;11.53;6.93;;;3.90;99.90;;;;;;5022102;28;20491;-83
2022/01/19 03:15:59;;;;;;;10.40;7.93;;;3.90;99.90;;;;;;5021933;28;20568;-83
2022/01/19 03:18:26;;;;;;;8.17;6.40;;;4.00;99.90;;;;;;5031377;28;20456;-83
2022/01/19 03:20:53;;;;;;;7.43;6.10;;;4.10;99.90;;;;;;5038219;28;20534;-82
2022/01/19 03:23:22;;;;;;;6.90;5.90;;;4.20;99.90;;;;;;5041948;28;20903;-84
2022/01/19 03:25:49;;;;;;;6.53;5.93;;;4.30;99.90;;;;;;5042149;28;20517;-82
2022/01/19 03:28:17;;;;;;;8.43;6.20;;;4.30;99.90;;;;;;5041990;28;20447;-82
2022/01/19 03:30:45;;;;;;;7.67;5.50;;;4.30;99.90;;;;;;5041264;28;20534;-84
2022/01/19 03:33:13;;;;;;;6.30;5.70;;;4.40;99.90;;;;;;5040021;28;20472;-84
2022/01/19 03:35:40;;;;;;;6.97;6.27;;;4.40;99.90;;;;;;5040245;28;20546;-83
2022/01/19 03:38:07;;;;;;;6.30;5.70;;;4.50;99.90;;;;;;5040941;28;20455;-83
2022/01/19 03:40:36;;;;;;;6.53;5.40;;;4.50;99.90;;;;;;5039632;28;20540;-84
2022/01/19 03:43:05;;;;;;;9.93;5.50;;;4.60;99.90;;;;;;5038902;28;20454;-84
2022/01/19 03:45:33;;;;;;;5.60;5.00;;;4.70;99.90;;;;;;5019826;28;20447;-83
2022/01/19 03:48:16;;;;;;;6.30;5.00;;;4.70;99.90;;;;;;5030646;28;20462;-83
2022/01/19 03:50:43;;;;;;;8.70;6.00;;;4.70;99.90;;;;;;5035543;28;20981;-83
2022/01/19 03:53:10;;;;;;;6.40;5.03;;;4.70;99.90;;;;;;5024114;28;20497;-83
2022/01/19 03:55:38;;;;;;;5.63;5.03;;;4.70;99.90;;;;;;5036411;28;20572;-83
2022/01/19 03:58:05;;;;;;;5.47;4.60;;;4.70;99.90;;;;;;5040430;28;20488;-83
2022/01/19 04:00:35;;;;;;;5.83;4.40;;;4.70;99.90;;;;;;5032976;28;20541;-83
2022/01/19 04:03:04;;;;;;;6.00;4.30;;;4.80;99.90;;;;;;5019692;28;20463;-83
2022/01/19 04:05:41;;;;;;;5.30;4.80;;;4.80;99.90;;;;;;5034944;28;20486;-82
2022/01/19 04:08:09;;;;;;;6.57;5.00;;;4.80;99.90;;;;;;5045977;28;20482;-83
2022/01/19 04:10:36;;;;;;;8.93;5.30;;;4.90;99.90;;;;;;5042380;28;20486;-84
2022/01/19 04:13:22;;;;;;;5.97;5.10;;;4.90;99.90;;;;;;5042760;28;20512;-84
2022/01/19 04:15:49;;;;;;;5.90;5.10;;;4.90;99.90;;;;;;5043648;28;20513;-84
2022/01/19 04:18:16;;;;;;;6.23;4.70;;;5.00;99.90;;;;;;5043524;28;20481;-83
2022/01/19 04:20:47;;;;;;;7.57;6.00;;;5.00;99.90;;;;;;5041692;28;20496;-83
2022/01/19 04:23:14;;;;;;;6.17;5.40;;;5.00;99.90;;;;;;5043621;28;20437;-83
2022/01/19 04:25:41;;;;;;;6.37;5.67;;;5.10;99.90;;;;;;5050412;28;20445;-82
2022/01/19 04:28:09;;;;;;;6.10;5.40;;;5.10;99.90;;;;;;5047258;28;20463;-84
2022/01/19 04:30:37;;;;;;;6.23;5.63;;;5.20;99.90;;;;;;5038976;28;20474;-82
2022/01/19 04:33:09;;;;;;;6.93;6.23;;;5.10;99.90;;;;;;5038607;28;20518;-83
2022/01/19 04:35:45;;;;;;;7.73;7.03;;;5.10;99.90;;;;;;5038988;28;20495;-83
2022/01/19 04:44:09;;;;;;;7.63;6.90;;;5.10;99.90;;;;;;5036699;28;20527;-84
2022/01/19 05:03:17;;;;;;;7.40;6.57;;;5.10;99.90;;;;;;5091395;23;20563;-85
2022/01/19 05:05:50;;;;;;;7.10;6.40;;;5.00;99.90;;;;;;5058092;28;21029;-83
2022/01/19 05:08:34;;;;;;;7.00;6.37;;;5.10;99.90;;;;;;5062957;28;20462;-85
2022/01/19 05:13:51;;;;;;;6.20;5.30;;;5.10;99.90;;;;;;5070446;28;20448;-89
2022/01/19 05:16:20;;;;;;;6.20;5.70;;;5.10;99.90;;;;;;5064066;28;20533;-84
2022/01/19 05:18:47;;;;;;;7.60;6.23;;;5.10;99.90;;;;;;5054489;28;20441;-82
2022/01/19 05:21:14;;;;;;;6.00;5.43;;;5.20;99.90;;;;;;5063835;28;20491;-84
2022/01/19 05:23:41;;;;;;;5.47;4.97;;;5.20;99.90;;;;;;5062750;28;20537;-85
2022/01/19 05:26:08;;;;;;;7.20;6.10;;;5.20;99.90;;;;;;5072487;28;20465;-85
2022/01/19 05:28:35;;;;;;;6.80;6.20;;;5.10;99.90;;;;;;5067556;28;20465;-85
2022/01/19 05:31:02;;;;;;;5.90;5.40;;;5.10;99.90;;;;;;5072563;28;20486;-85
2022/01/19 05:33:30;;;;;;;5.27;4.87;;;5.20;99.90;;;;;;5065670;28;20540;-84
2022/01/19 05:35:58;;;;;;;7.10;5.80;;;5.20;99.90;;;;;;5065771;28;20544;-83
2022/01/19 05:38:25;;;;;;;6.60;5.90;;;5.10;99.90;;;;;;5066283;28;20483;-84
2022/01/19 05:40:52;;;;;;;6.47;5.87;;;5.00;99.90;;;;;;5067409;28;20466;-83
2022/01/19 05:43:19;;;;;;;7.07;6.30;;;5.10;99.90;;;;;;5064883;28;20594;-84
2022/01/19 05:45:46;;;;;;;6.13;5.53;;;5.10;99.90;;;;;;5066520;28;20467;-83
2022/01/19 05:48:13;;;;;;;6.40;5.80;;;5.10;99.90;;;;;;5064744;28;20980;-85
2022/01/19 05:50:41;;;;;;;5.53;5.03;;;5.10;99.90;;;;;;5054207;28;20464;-84
2022/01/19 05:53:08;;;;;;;5.90;5.30;;;5.10;99.90;;;;;;5063432;28;20478;-84
2022/01/19 05:55:35;;;;;;;6.43;4.93;;;5.10;99.90;;;;;;5081644;28;20572;-84
2022/01/19 05:58:02;;;;;;;5.93;5.43;;;5.10;99.90;;;;;;5081387;28;20870;-83
2022/01/19 06:00:29;;;;;;;6.37;5.37;;;5.00;99.90;;;;;;5078764;28;20486;-86
2022/01/19 06:02:56;;;;;;;6.93;5.80;;;5.10;99.90;;;;;;5062367;28;20488;-84
2022/01/19 06:05:23;;;;;;;5.70;5.20;;;5.00;99.90;;;;;;5062389;28;20558;-83
2022/01/19 06:08:08;;;;;;;5.93;5.10;;;5.00;99.90;;;;;;5070845;28;20509;-84
2022/01/19 06:10:44;;;;;;;7.13;5.50;;;4.90;99.90;;;;;;5079347;28;20485;-82
2022/01/19 06:13:12;;;;;;;5.80;4.87;;;4.90;99.90;;;;;;5060303;28;20518;-83
2022/01/19 06:15:41;;;;;;;6.03;5.43;;;5.00;99.90;;;;;;5062362;28;20481;-83
2022/01/19 06:18:08;;;;;;;6.60;5.90;;;5.00;99.90;;;;;;5059539;28;20485;-78
2022/01/19 06:20:34;;;;;;;8.10;6.13;;;5.00;99.90;;;;;;5057505;28;20451;-80
2022/01/19 06:23:03;;;;;;;5.70;5.20;;;5.10;99.90;;;;;;5053495;28;20921;-79
2022/01/19 06:25:30;;;;;;;5.43;4.93;;;5.00;99.90;;;;;;5054355;28;20491;-80
2022/01/19 06:27:57;;;;;;;6.10;5.50;;;5.10;99.90;;;;;;5056833;28;20520;-82
2022/01/19 06:30:24;;;;;;;8.30;5.43;;;5.10;99.90;;;;;;5064411;28;20508;-81
2022/01/19 06:32:51;;;;;;;7.40;5.40;;;5.10;99.90;;;;;;5056897;28;20567;-81
2022/01/19 06:35:18;;;;;;;5.67;5.03;;;5.00;99.90;;;;;;5055731;28;20490;-81
2022/01/19 06:37:45;;;;;;;6.77;5.43;;;5.10;99.90;;;;;;5057136;28;20487;-81
2022/01/19 06:40:16;;;;;;;5.40;4.87;;;5.00;99.90;;;;;;5057248;28;21127;-79
2022/01/19 06:42:44;;;;;;;7.70;5.07;;;5.00;99.90;;;;;;5058602;28;20516;-80
2022/01/19 06:45:12;;;;;;;5.83;5.27;;;5.10;99.90;;;;;;5055814;28;20443;-80
2022/01/19 06:47:39;;;;;;;6.10;5.50;;;5.10;99.90;;;;;;5057318;28;20930;-82
2022/01/19 06:50:08;;;;;;;5.53;5.03;;;5.10;99.90;;;;;;5057757;28;20459;-82
2022/01/19 06:52:35;;;;;;;7.40;5.40;;;5.20;99.90;;;;;;5041678;28;20504;-82
2022/01/19 06:55:02;;;;;;;6.53;5.80;;;5.20;99.90;;;;;;5038087;28;20533;-83
2022/01/19 06:57:31;;;;;;;6.50;5.90;;;5.20;99.90;;;;;;5055661;28;21036;-83
2022/01/19 06:59:57;;;;;;;8.70;6.90;;;5.30;99.90;;;;;;5056446;28;20516;-83
2022/01/19 07:02:24;;;;;;;7.10;6.40;;;5.30;99.90;;;;;;5058993;28;20566;-82
2022/01/19 07:04:51;;;;;;;7.30;6.60;;;5.40;99.90;;;;;;5058314;28;20824;-81
2022/01/19 07:07:19;;;;;;;8.10;5.07;;;5.40;99.90;;;;;;5056067;28;20524;-83
2022/01/19 07:09:47;;;;;;;6.10;5.50;;;5.30;99.90;;;;;;5072968;28;20460;-83
2022/01/19 07:12:14;;;;;;;4.97;4.47;;;5.30;99.90;;;;;;5056026;28;20561;-83
2022/01/19 07:14:42;;;;;;;6.17;5.50;;;5.40;99.90;;;;;;5051766;28;20521;-82
2022/01/19 07:17:09;;;;;;;6.40;4.80;;;5.40;99.90;;;;;;5071242;28;20517;-83
2022/01/19 07:19:36;;;;;;;6.57;5.30;;;5.40;99.90;;;;;;5065920;28;20481;-82
2022/01/19 07:22:04;;;;;;;5.67;5.20;;;5.40;99.90;;;;;;5058997;28;20503;-82
2022/01/19 07:24:32;;;;;;;6.43;5.80;;;5.30;99.90;;;;;;5060602;28;20550;-82
2022/01/19 07:26:59;;;;;;;6.87;6.17;;;5.40;99.90;;;;;;5055312;28;20838;-82
2022/01/19 07:29:26;;;;;;;6.00;4.97;;;5.30;99.90;;;;;;5051655;28;20524;-82
2022/01/19 07:31:56;;;;;;;6.20;5.60;;;5.30;99.90;;;;;;5058724;28;20512;-82
2022/01/19 07:34:25;;;;;;;5.60;4.73;;;5.30;99.90;;;;;;5053203;28;20466;-81
2022/01/19 07:36:53;;;;;;;5.87;5.10;;;5.40;99.90;;;;;;5054246;28;20993;-82
2022/01/19 07:39:21;;;;;;;5.77;5.20;;;5.40;99.90;;;;;;5053975;28;20511;-82
2022/01/19 07:41:47;;;;;;;5.90;5.10;;;5.40;99.90;;;;;;5054632;28;20478;-83
2022/01/19 07:44:14;;;;;;;6.80;5.67;;;5.40;99.90;;;;;;5073349;28;20455;-82
2022/01/19 07:46:42;;;;;;;6.10;5.50;;;5.30;99.90;;;;;;5055436;28;20465;-82
2022/01/19 07:49:10;;;;;;;5.90;5.30;;;5.40;99.90;;;;;;5056891;28;20480;-82
2022/01/19 07:51:37;;;;;;;7.27;6.27;;;5.40;99.90;;;;;;5051016;28;20536;-82
2022/01/19 07:54:04;;;;;;;6.27;4.80;;;5.30;99.90;;;;;;5052238;28;20491;-82
2022/01/19 07:56:31;;;;;;;5.90;4.90;;;5.30;99.90;;;;;;5060921;28;20539;-82
2022/01/19 07:58:58;;;;;;;7.60;5.40;;;5.30;99.90;;;;;;5056143;28;20517;-83
2022/01/19 08:01:27;;;;;;;6.53;5.90;;;5.30;99.90;;;;;;5059659;28;21080;-82
2022/01/19 08:03:54;;;;;;;6.23;5.63;;;5.20;99.90;;;;;;5057110;28;21214;-82
2022/01/19 08:06:22;;;;;;;6.70;5.00;;;5.20;99.90;;;;;;5056110;28;20525;-82
2022/01/19 08:08:49;;;;;;;9.00;6.50;;;5.30;99.90;;;;;;5053945;28;20559;-83
2022/01/19 08:11:16;;;;;;;9.80;7.40;;;5.40;99.90;;;;;;5051625;28;20518;-83
2022/01/19 08:13:43;;;;;;;6.37;5.50;;;5.30;99.90;;;;;;5056545;28;20493;-82
2022/01/19 08:16:10;;;;;;;8.33;6.67;;;5.30;99.90;;;;;;5054184;28;20556;-82
2022/01/19 08:18:37;;;;;;;6.53;5.80;;;5.20;99.90;;;;;;5060066;28;20468;-82
2022/01/19 08:21:03;;;;;;;6.73;5.90;;;5.20;99.90;;;;;;5055804;28;20894;-81
2022/01/19 08:23:32;;;;;;;6.30;5.20;;;5.30;99.90;;;;;;5063680;28;20467;-81
2022/01/19 08:25:59;;;;;;;6.83;5.77;;;5.20;99.90;;;;;;5069838;28;20482;-80
2022/01/19 08:28:25;;;;;;;8.43;6.60;;;5.20;99.90;;;;;;5066576;28;20479;-80
2022/01/19 08:30:52;;;;;;;6.87;6.27;;;5.10;99.90;;;;;;5069692;28;20499;-82
2022/01/19 08:33:19;;;;;;;7.30;6.60;;;5.20;99.90;;;;;;5063836;28;21038;-80
2022/01/19 08:35:46;;;;;;;10.17;7.73;;;5.10;99.90;;;;;;5066587;28;20738;-82
2022/01/19 08:38:13;;;;;;;8.93;7.20;;;5.10;99.90;;;;;;5063538;28;20452;-83
2022/01/19 08:40:42;;;;;;;11.37;9.40;;;5.20;99.90;;;;;;5079590;28;20451;-83
2022/01/19 08:43:08;;;;;;;12.93;9.90;;;5.20;99.90;;;;;;5052505;28;20497;-81
2022/01/19 08:45:36;;;;;;;14.60;10.93;;;5.10;99.90;;;;;;5042037;28;21017;-82
2022/01/19 08:48:04;;;;;;;14.70;10.73;;;5.20;99.90;;;;;;5061750;28;20467;-81
2022/01/19 08:50:31;;;;;;;12.00;9.93;;;5.10;99.90;;;;;;5067065;28;20479;-83
2022/01/19 08:52:58;;;;;;;13.23;10.20;;;5.20;99.90;;;;;;5055276;28;20499;-81
2022/01/19 08:55:25;;;;;;;15.17;11.27;;;5.20;99.90;;;;;;5056929;28;20536;-81
2022/01/19 08:57:53;;;;;;;17.30;12.13;;;5.20;99.90;;;;;;5059173;28;20486;-81
2022/01/19 09:00:21;;;;;;;13.30;10.93;;;5.20;99.90;;;;;;5061586;28;20520;-82
2022/01/19 09:02:49;;;;;;;16.27;11.03;;;5.20;99.90;;;;;;5058362;28;20523;-82
2022/01/19 09:05:16;;;;;;;16.43;11.63;;;5.10;99.90;;;;;;5048701;28;20521;-81
2022/01/19 09:07:42;;;;;;;16.60;12.60;;;5.10;99.90;;;;;;5045520;28;20485;-81
2022/01/19 09:10:11;;;;;;;14.00;11.80;;;5.00;99.90;;;;;;5058502;28;20480;-82
2022/01/19 09:12:39;;;;;;;14.17;12.20;;;5.00;99.90;;;;;;5048262;28;20508;-82
2022/01/19 09:15:09;;;;;;;12.50;11.20;;;5.00;99.90;;;;;;5057235;28;20542;-81
2022/01/19 09:17:36;;;;;;;15.20;11.73;;;5.00;99.90;;;;;;5058343;28;20551;-81
2022/01/19 09:20:05;;;;;;;15.47;12.30;;;5.00;99.90;;;;;;5058077;28;20541;-79
2022/01/19 09:22:32;;;;;;;15.00;11.37;;;5.00;99.90;;;;;;5057935;28;20471;-81
2022/01/19 09:24:59;;;;;;;15.40;11.33;;;4.90;99.90;;;;;;5057121;28;20528;-80
2022/01/19 09:27:26;;;;;;;18.10;11.97;;;5.00;99.90;;;;;;5058250;28;20487;-81
2022/01/19 09:29:53;;;;;;;11.30;9.43;;;5.00;99.90;;;;;;5057846;28;21009;-79
2022/01/19 09:32:21;;;;;;;15.43;11.20;;;5.00;99.90;;;;;;5057615;28;20472;-81
2022/01/19 09:34:54;;;;;;;15.97;12.50;;;5.10;99.90;;;;;;5055401;28;20486;-82
2022/01/19 09:37:21;;;;;;;15.90;11.90;;;5.00;99.90;;;;;;5058587;28;20474;-83
2022/01/19 09:39:48;;;;;;;16.53;12.20;;;5.00;99.90;;;;;;5057359;28;20483;-82
2022/01/19 09:42:15;;;;;;;18.10;14.13;;;5.10;99.90;;;;;;5059696;28;20468;-81
2022/01/19 09:44:42;;;;;;;17.53;12.53;;;5.10;99.90;;;;;;5067696;28;20539;-81
2022/01/19 09:47:09;;;;;;;16.20;10.73;;;5.10;99.90;;;;;;5077829;28;20474;-81
2022/01/19 09:49:37;;;;;;;16.03;11.07;;;5.10;99.90;;;;;;5066374;28;20544;-82
2022/01/19 09:52:05;;;;;;;12.87;11.13;;;5.10;99.90;;;;;;5057408;28;20546;-81
2022/01/19 09:54:32;;;;;;;16.70;12.20;;;5.10;99.90;;;;;;5056425;28;20488;-81
2022/01/19 09:56:59;;;;;;;16.60;11.37;;;5.20;99.90;;;;;;5064473;28;20489;-81
2022/01/19 09:59:26;;;;;;;16.73;11.80;;;5.20;99.90;;;;;;5076408;28;20534;-81
2022/01/19 10:01:55;;;;;;;12.23;10.03;;;5.20;99.90;;;;;;5067433;28;20572;-81
2022/01/19 10:04:24;;;;;;;13.90;10.93;;;5.20;99.90;;;;;;5056861;28;20487;-83
2022/01/19 10:07:10;;;;;;;18.40;11.43;;;5.30;99.90;;;;;;5066177;28;20456;-83
2022/01/19 10:09:52;;;;;;;15.20;11.00;;;5.30;99.90;;;;;;5056647;28;20461;-83
2022/01/19 10:18:14;;;;;;;15.53;10.30;;;5.30;99.90;;;;;;5062745;28;20474;-82
2022/01/19 10:20:41;;;;;;;14.40;11.03;;;5.40;99.90;;;;;;5061617;28;20452;-82
2022/01/19 10:23:33;;;;;;;12.67;10.20;;;5.30;99.90;;;;;;5055855;28;20860;-80
2022/01/19 10:26:01;;;;;;;14.77;11.60;;;5.40;99.90;;;;;;5056770;28;20457;-83
2022/01/19 10:28:28;;;;;;;16.03;11.23;;;5.50;99.90;;;;;;5063630;28;20455;-81
2022/01/19 10:30:55;;;;;;;13.63;10.67;;;5.50;99.90;;;;;;5076426;28;20548;-81
2022/01/19 10:33:22;;;;;;;16.80;12.83;;;5.50;99.90;;;;;;5069468;28;20550;-81
2022/01/19 10:35:50;;;;;;;15.90;11.90;;;5.50;99.90;;;;;;5075049;28;20548;-82
2022/01/19 10:38:25;;;;;;;13.50;10.10;;;5.50;99.90;;;;;;5067604;28;20490;-79
2022/01/19 10:41:07;;;;;;;18.70;12.60;;;5.50;99.90;;;;;;5058270;28;20847;-80
2022/01/19 10:43:38;;;;;;;16.40;11.50;;;5.50;99.90;;;;;;5064725;28;20489;-81
2022/01/19 10:46:27;;;;;;;18.13;13.33;;;5.50;99.90;;;;;;5073741;28;20483;-81
2022/01/19 10:49:03;;;;;;;15.40;11.90;;;5.50;99.90;;;;;;5058961;28;20873;-81
2022/01/19 10:51:32;;;;;;;16.80;12.10;;;5.50;99.90;;;;;;5060624;28;20495;-79
2022/01/19 10:54:15;;;;;;;14.33;11.87;;;5.70;99.90;;;;;;5057066;28;20517;-81
2022/01/19 10:56:43;;;;;;;18.30;12.70;;;5.50;99.90;;;;;;5057449;28;20519;-81
2022/01/19 10:59:13;;;;;;;15.73;11.33;;;5.60;99.90;;;;;;5058372;28;20537;-80
2022/01/19 11:01:45;;;;;;;17.60;11.50;;;5.60;99.90;;;;;;5057266;28;20930;-81
2022/01/19 11:04:32;;;;;;;17.70;12.53;;;5.70;99.90;;;;;;5085901;22;20883;-82
2022/01/19 11:07:02;;;;;;;17.47;11.13;;;5.70;99.90;;;;;;5082215;28;20520;-81
2022/01/19 11:09:32;;;;;;;22.43;13.93;;;5.80;99.90;;;;;;5079707;28;20482;-79
2022/01/19 11:12:05;;;;;;;17.03;12.50;;;5.70;99.90;;;;;;5087319;28;20459;-82
2022/01/19 11:14:32;;;;;;;14.57;11.60;;;5.80;99.90;;;;;;5088415;28;20467;-82
2022/01/19 11:16:59;;;;;;;14.67;12.37;;;5.90;99.90;;;;;;5080035;28;20489;-82
2022/01/19 11:19:26;;;;;;;27.13;13.87;;;5.90;99.90;;;;;;5085772;28;20529;-82
2022/01/19 11:22:24;;;;;;;18.10;12.10;;;5.90;99.90;;;;;;5086566;28;20480;-82
2022/01/19 11:25:08;;;;;;;15.97;11.57;;;6.00;99.90;;;;;;5071934;28;20507;-83
2022/01/19 11:27:40;;;;;;;20.83;13.50;;;6.00;99.90;;;;;;5085989;28;20534;-82
2022/01/19 11:30:18;;;;;;;15.60;12.07;;;5.90;99.90;;;;;;5090596;28;20977;-78
2022/01/19 11:33:06;;;;;;;19.40;13.60;;;5.80;99.90;;;;;;5098389;28;20483;-77
2022/01/19 11:35:34;;;;;;;19.07;13.07;;;5.70;99.90;;;;;;5097164;28;20436;-77
2022/01/19 11:38:02;;;;;;;19.00;13.07;;;5.70;99.90;;;;;;5099829;28;21084;-79
2022/01/19 11:40:40;;;;;;;17.83;13.10;;;5.80;99.90;;;;;;5090304;28;20869;-81
2022/01/19 11:43:19;;;;;;;14.33;11.00;;;5.80;99.90;;;;;;5087959;28;20844;-82
2022/01/19 11:45:46;;;;;;;16.70;13.10;;;5.80;99.90;;;;;;5087098;28;20460;-81
2022/01/19 11:48:15;;;;;;;17.43;12.17;;;5.80;99.90;;;;;;5079585;28;20443;-80
2022/01/19 11:50:43;;;;;;;14.50;11.73;;;5.80;99.90;;;;;;5097594;28;20994;-81
2022/01/19 11:53:12;;;;;;;15.63;11.00;;;5.90;99.90;;;;;;5100820;28;21490;-79
2022/01/19 11:55:41;;;;;;;14.50;10.80;;;5.90;99.90;;;;;;5101569;28;20526;-80
2022/01/19 11:58:15;;;;;;;16.23;12.80;;;5.90;99.90;;;;;;5102438;28;20592;-81
2022/01/19 12:00:44;;;;;;;14.43;10.80;;;5.90;99.90;;;;;;5091331;28;20472;-79
2022/01/19 12:03:22;;;;;;;17.70;12.60;;;6.10;99.90;;;;;;5081208;28;20485;-78
2022/01/19 12:05:51;;;;;;;15.83;11.77;;;6.10;99.90;;;;;;5096313;28;20857;-80
2022/01/19 12:08:26;;;;;;;17.70;13.83;;;6.20;99.90;;;;;;5099833;28;20443;-81
2022/01/19 12:10:58;;;;;;;14.27;11.33;;;6.10;99.90;;;;;;5100385;28;20465;-80
2022/01/19 12:13:54;;;;;;;15.73;13.17;;;6.30;99.90;;;;;;5092958;28;20477;-81
2022/01/19 12:16:37;;;;;;;16.13;12.73;;;6.20;99.90;;;;;;5086546;28;20488;-77
2022/01/19 12:19:15;;;;;;;16.40;12.17;;;6.10;99.90;;;;;;5100053;28;20532;-83
2022/01/19 12:21:45;;;;;;;18.00;12.37;;;6.00;99.90;;;;;;5101933;28;20899;-82
2022/01/19 12:24:29;;;;;;;16.87;13.60;;;6.00;99.90;;;;;;5100239;28;20507;-80
2022/01/19 12:27:04;;;;;;;18.77;13.17;;;6.00;99.90;;;;;;5093452;28;20795;-81
2022/01/19 12:29:46;;;;;;;18.60;13.57;;;5.90;99.90;;;;;;5091511;28;20473;-80
2022/01/19 12:32:40;;;;;;;16.30;11.80;;;6.00;99.90;;;;;;5091378;28;20483;-80
2022/01/19 12:35:16;;;;;;;18.97;14.10;;;5.90;99.90;;;;;;5100350;28;20488;-79
2022/01/19 12:37:47;;;;;;;19.30;13.63;;;5.90;99.90;;;;;;5100307;28;20837;-80
2022/01/19 12:40:45;;;;;;;24.30;13.73;;;5.70;99.90;;;;;;5100454;28;20488;-80
2022/01/19 12:43:29;;;;;;;18.13;13.77;;;5.80;99.90;;;;;;5103901;28;20449;-78
2022/01/19 12:45:58;;;;;;;17.23;12.77;;;5.70;99.90;;;;;;5110097;28;20453;-81
2022/01/19 12:48:46;;;;;;;18.13;13.97;;;5.70;99.90;;;;;;5099510;28;20874;-80
2022/01/19 12:51:36;;;;;;;17.00;12.40;;;5.70;99.90;;;;;;5096363;28;20455;-80
2022/01/19 12:54:03;;;;;;;18.90;13.27;;;5.70;99.90;;;;;;5094884;28;20554;-79
2022/01/19 12:56:31;;;;;;;19.30;13.47;;;5.60;99.90;;;;;;5096405;28;20490;-79
2022/01/19 12:59:09;;;;;;;21.20;13.90;;;5.50;99.90;;;;;;5098178;28;20982;-78
2022/01/19 13:01:38;;;;;;;17.80;12.40;;;5.50;99.90;;;;;;5081935;28;20463;-78
2022/01/19 13:04:05;;;;;;;19.63;14.07;;;5.50;99.90;;;;;;5076919;28;20504;-78
2022/01/19 13:06:34;;;;;;;15.47;11.70;;;5.50;99.90;;;;;;5078286;28;20533;-79
2022/01/19 13:09:10;;;;;;;19.53;13.43;;;5.60;99.90;;;;;;5078452;28;20447;-78
2022/01/19 13:11:40;;;;;;;17.10;11.90;;;5.70;99.90;;;;;;5079695;28;20539;-79
2022/01/19 13:14:10;;;;;;;19.07;14.63;;;5.70;99.90;;;;;;5078012;28;20468;-78
2022/01/19 13:16:40;;;;;;;16.97;12.97;;;5.70;99.90;;;;;;5078691;28;20465;-80
2022/01/19 13:19:13;;;;;;;17.70;14.67;;;5.70;99.90;;;;;;5079024;28;20445;-80
2022/01/19 13:21:42;;;;;;;18.03;13.77;;;5.70;99.90;;;;;;5077586;28;20522;-80
2022/01/19 13:24:14;;;;;;;25.07;15.90;;;5.60;99.90;;;;;;5077111;28;20464;-80
2022/01/19 13:26:59;;;;;;;18.03;14.53;;;5.40;99.90;;;;;;5078434;28;20455;-78
2022/01/19 13:29:34;;;;;;;17.03;13.50;;;5.40;99.90;;;;;;5086650;28;20965;-78
2022/01/19 13:32:12;;;;;;;18.27;14.60;;;5.40;99.90;;;;;;5099056;28;20485;-78
2022/01/19 13:34:57;;;;;;;18.83;13.93;;;5.50;99.90;;;;;;5096299;28;20608;-78
2022/01/19 13:37:25;;;;;;;18.20;14.27;;;5.40;99.90;;;;;;5099094;28;20477;-80
2022/01/19 13:40:00;;;;;;;20.47;15.70;;;5.50;99.90;;;;;;5097682;28;20493;-77
2022/01/19 13:42:51;;;;;;;20.77;15.10;;;5.40;99.90;;;;;;5098208;28;21080;-78
2022/01/19 13:45:30;;;;;;;23.43;14.57;;;5.40;99.90;;;;;;5095758;28;20827;-79
2022/01/19 13:48:08;;;;;;;19.60;14.97;;;5.40;99.90;;;;;;5097452;28;21065;-79
2022/01/19 13:50:37;;;;;;;20.47;13.83;;;5.30;99.90;;;;;;5094121;28;20497;-79
2022/01/19 13:53:04;;;;;;;16.90;13.90;;;5.50;99.90;;;;;;5081634;28;20816;-78
2022/01/19 13:55:35;;;;;;;16.87;13.90;;;5.50;99.90;;;;;;5094617;28;20479;-80
2022/01/19 13:58:09;;;;;;;18.97;14.97;;;5.40;99.90;;;;;;5085598;28;20516;-78
2022/01/19 14:00:50;;;;;;;77.80;69.87;;;5.40;99.90;;;;;;5077115;28;20530;-78
2022/01/19 14:03:18;;;;;;;22.13;16.53;;;5.30;99.90;;;;;;5078337;28;20483;-79
2022/01/19 14:05:47;;;;;;;21.17;15.23;;;5.40;99.90;;;;;;5076358;28;20464;-80
2022/01/19 14:08:27;;;;;;;17.63;13.93;;;5.40;99.90;;;;;;5091052;28;20544;-78
2022/01/19 14:10:54;;;;;;;18.87;13.40;;;5.40;99.90;;;;;;5096566;28;20452;-78
2022/01/19 14:13:27;;;;;;;17.37;13.90;;;5.40;99.90;;;;;;5097769;28;20897;-77
2022/01/19 14:15:55;;;;;;;17.17;12.43;;;5.40;99.90;;;;;;5099944;28;20542;-79